Wednesday, March 22, 2017, 8:12 PM MDT
Back to Local

KSLC, Salt Lake City International Airport

Location: Salt Lake City, UT, United States Lat: 40.783
Local Time: 8:12 PM MDT ( 2:12 GMT) Lon: -111.967
Time Zone: US/Mountain Elev: 4225 ft

Show me the last for .
Show Decoded

2017-03-22 19:54 METAR KSLC 230154Z 26004KT 10SM FEW050 FEW080 BKN130 OVC170 12/07 A2976 RMK AO2
                 SLP051 VIRGA DSNT SW-NW CB DSNT SW-NW SHRA DSNT N T01170067 =
2017-03-22 18:54 METAR KSLC 230054Z 32003KT 10SM FEW050 SCT080 BKN100 OVC140 13/06 A2976 RMK AO2
                 SLP049 VIRGA DSNT SW-N CB DSNT ALQDS T01330061 =
2017-03-22 17:54 METAR KSLC 222354Z COR 03012KT 10SM FEW027 SCT080CB SCT110 OVC240 13/06 A2977 =
2017-03-22 16:54 METAR KSLC 222254Z 36013KT 10SM -RA FEW050 SCT080CB BKN110 OVC140 13/08 A2981
                 RMK AO2 RAB52 SLP064 CB OHD MOV NE AND DSNT N-NE AND S-W SHRA DSNT N-NE P0000
                 T01330078 =
2017-03-22 15:54 METAR KSLC 222154Z 35017G21KT 10SM FEW040 SCT070CB BKN090 OVC150 14/08 A2980 RMK
                 AO2 RAB12E38 SLP063 VIRGA OHD CB OHD MOVE NE AND DSNT SW-NW-NE P0000 T01390078 =
2017-03-22 14:54 METAR KSLC 222054Z 01010KT 10SM FEW035 SCT070CB BKN100 BKN200 14/08 A2982 RMK
                 AO2 RAE16 TSE06 SLP068 VIRGA NW-N AND DSNT ALQDS CB S MOV NE AND DSNT SW-NE
                 P0002 60007 T01390078 58009 =
2017-03-22 14:07 METAR KSLC 222007Z 33009KT 9SM -RA FEW034 SCT049TCU BKN070 BKN200 14/09 A2984
                 RMK AO2 TSE06 VIRGA SW AND DSNT W CB DSNT SW-NE TCU SE-S P0002 T01390089 =
2017-03-22 13:54 METAR KSLC 221954Z 32008KT 10SM -TSRA FEW035 BKN070CB BKN080 BKN200 13/09 A2986
                 RMK AO2 RAB33 TSB47 SLP081 OCNL LTGIC VC NE TS VC NE MOV NE CB DSNT SW-NE TCU S
                 P0005 T01280094 =
2017-03-22 13:50 METAR KSLC 221950Z 34010KT 8SM -TSRA FEW035 BKN070CB BKN080 BKN200 13/08 A2986
                 RMK AO2 RAB33 TSB47 OCNL LTGIC VC NE TS VC NE MOV NE CB DSNT SW-NE TCU S P0004 =
2017-03-22 12:54 METAR KSLC 221854Z 32012KT 10SM SCT070CB BKN080 BKN110 BKN220 16/07 A2985 RMK
                 AO2 SLP073 VIRGA SW CB W MOV NE AND DSNT SW-NE TCU OHD AND DSNT E T01610067 =
2017-03-22 11:54 METAR KSLC 221754Z 36010KT 10SM FEW037 SCT070TCU BKN100 BKN230 14/08 A2988 RMK
                 AO2 RAB42E54 SLP084 CB DSNT SW-N TCU NE AND SW P0000 60000 T01440078 10161 20106
                 50000 =
2017-03-22 10:54 METAR KSLC 221654Z 35003KT 10SM FEW070TCU SCT090 BKN110 BKN200 16/07 A2989 RMK
                 AO2 SLP082 VIRGA DSNT E AND SW CB DSNT NW-N TCU SW-NW T01610067 =
2017-03-22 09:54 METAR KSLC 221554Z 34005KT 10SM BKN075TCU BKN090 BKN120 BKN200 13/08 A2989 RMK
                 AO2 SLP085 CB DSNT NW TCU S AND W T01330083 =
2017-03-22 08:54 METAR KSLC 221454Z 22004KT 10SM FEW050 SCT080 SCT110 BKN220 12/08 A2988 RMK AO2
                 SLP079 TCU DSNT SW AND NW SH DSNT SE 60000 T01220083 55006 =
2017-03-22 07:54 METAR KSLC 221354Z VRB04KT 10SM FEW060 BKN070 BKN085 BKN200 12/08 A2987 RMK AO2
                 SLP079 VIRGA SW AND W-NW CB DSNT SW AND NW T01170078 =
2017-03-22 06:54 METAR KSLC 221254Z 12007KT 10SM BKN075 BKN085 OVC110 12/08 A2987 RMK AO2 RAE03
                 SLP075 P0000 T01170078 =
2017-03-22 05:54 METAR KSLC 221154Z 14008KT 9SM -RA BKN060 BKN070 OVC110 12/08 A2990 RMK AO2
                 RAE13B31 SLP085 P0001 60001 70001 T01170083 10156 20117 55007 =
2017-03-22 04:54 METAR KSLC 221054Z 09005KT 10SM -RA FEW060 BKN075 OVC095 14/06 A2988 RMK AO2
                 RAB46 SLP077 P0000 T01390056 =
2017-03-22 03:54 METAR KSLC 220954Z 36010KT 10SM BKN095 OVC110 12/06 A2990 RMK AO2 SLP084
                 T01220061 =
2017-03-22 02:54 METAR KSLC 220854Z 34009KT 10SM BKN095 OVC110 13/06 A2992 RMK AO2 SLP093
                 T01280061 51001 =
2017-03-22 01:54 METAR KSLC 220754Z 35011KT 10SM BKN090 BKN110 BKN150 14/06 A2992 RMK AO2 SLP090
                 T01390061 =
2017-03-22 00:54 METAR KSLC 220654Z 02005KT 10SM BKN085 BKN120 BKN150 14/06 A2992 RMK AO2 SLP094
                 T01440061 402390144 =
2017-03-21 23:54 METAR KSLC 220554Z 34012KT 9SM BKN100 BKN120 BKN150 16/04 A2991 RMK AO2 SLP091
                 T01560044 10228 20156 53024 =
2017-03-21 22:54 METAR KSLC 220454Z 15008KT 10SM BKN110 BKN150 18/M01 A2988 RMK AO2 SLP078
                 T01831006 =
2017-03-21 21:54 METAR KSLC 220354Z 16010G19KT 10SM FEW085 BKN130 19/M01 A2986 RMK AO2 SLP071
                 T01941011 =
2017-03-21 20:54 METAR KSLC 220254Z 18015G23KT 10SM FEW090 BKN130 21/M02 A2984 RMK AO2 PK WND
                 19029/0159 SLP060 SH DSNT NW T02061017 53004 =

Support USWX by starting your Amazon purchase here.